Terminal Aerodrome Forecast
Issued by NWS Mt. Holly, NJ

Home | Current Version | Previous Version | Text Only | Print | Product List | Glossary On
Versions: 1 2 3 4 5 6 7 8 9 10 11 12 13 14 15 16 17 18 19
000
FTUS41 KPHI 311700
TAFTTN
TAF
KTTN 311730Z 3118/0118 32012G22KT P6SM SKC
     FM312200 31010KT P6SM SKC
     FM010500 30007KT P6SM SCT100 BKN250
     FM011000 28005KT P6SM BKN100
     FM011700 25005KT P6SM OVC050=

USA.gov is the U.S. government's official web portal to all federal, state and local government web resources and services.